Time;durP1;ratioP1;P1;durP2;ratioP2;P2;SDS_P1;SDS_P2;PMS_P1;PMS_P2;Temp;Humidity;BMP_temperature;BMP_pressure;BME280_temperature;BME280_humidity;BME280_pressure;Samples;Min_cycle;Max_cycle;Signal;HPM_P1;HPM_P2
2022/04/07 00:01:08;;;;;;;15.85;5.72;;;;;;;8.22;54.32;100358.48;1728293;83;25794;-60
2022/04/07 00:03:36;;;;;;;21.62;6.10;;;;;;;8.21;54.29;100359.46;1728112;83;26088;-60
2022/04/07 00:06:09;;;;;;;17.20;6.35;;;;;;;8.18;54.50;100353.02;1728317;83;26092;-60
2022/04/07 00:08:31;;;;;;;13.62;5.85;;;;;;;8.13;54.35;100354.75;1727830;82;27490;-60
2022/04/07 00:10:58;;;;;;;18.30;6.03;;;;;;;8.04;55.36;100351.51;1727990;83;25725;-60
2022/04/07 00:13:25;;;;;;;13.85;6.08;;;;;;;7.96;55.04;100348.16;1728142;83;25772;-60
2022/04/07 00:15:53;;;;;;;14.25;6.05;;;;;;;7.92;55.70;100344.53;1728081;83;25998;-60
2022/04/07 00:18:20;;;;;;;13.20;5.92;;;;;;;7.88;55.23;100341.27;1728277;83;26180;-60
2022/04/07 00:20:48;;;;;;;24.65;6.55;;;;;;;7.86;55.15;100336.99;1728107;83;27430;-60
2022/04/07 00:23:15;;;;;;;13.98;5.90;;;;;;;7.84;55.21;100341.15;1728102;83;25809;-59
2022/04/07 00:25:41;;;;;;;12.25;5.53;;;;;;;7.83;54.98;100342.99;1728127;82;25659;-61
2022/04/07 00:28:08;;;;;;;9.85;5.25;;;;;;;7.83;55.05;100336.77;1728077;82;26259;-59
2022/04/07 00:30:37;;;;;;;9.58;4.95;;;;;;;7.83;55.36;100334.95;1728001;83;25545;-60
2022/04/07 00:33:07;;;;;;;10.90;5.90;;;;;;;7.82;55.38;100334.59;1727933;83;27539;-60
2022/04/07 00:35:34;;;;;;;15.78;6.40;;;;;;;7.80;55.06;100331.19;1728180;82;25739;-60
2022/04/07 00:38:03;;;;;;;11.35;5.97;;;;;;;7.78;55.21;100330.45;1728085;82;25773;-60
2022/04/07 00:40:31;;;;;;;13.18;6.53;;;;;;;7.79;55.18;100329.48;1728242;83;26140;-60
2022/04/07 00:42:59;;;;;;;13.78;6.03;;;;;;;7.78;55.15;100330.96;1720544;83;25795;-60
2022/04/07 00:45:26;;;;;;;13.10;6.40;;;;;;;7.78;55.11;100325.61;1679782;85;27755;-60
2022/04/07 00:47:53;;;;;;;12.10;6.30;;;;;;;7.76;54.96;100321.70;1679662;85;25748;-59
2022/04/07 00:50:21;;;;;;;13.75;6.08;;;;;;;7.74;54.93;100322.34;1686456;84;25654;-60
2022/04/07 00:52:55;;;;;;;21.33;5.30;;;;;;;7.73;55.05;100319.77;1690465;84;26314;-59
2022/04/07 00:55:23;;;;;;;12.45;7.00;;;;;;;7.72;54.97;100322.95;1690718;84;25672;-59
2022/04/07 00:57:50;;;;;;;12.45;6.00;;;;;;;7.70;55.13;100329.42;1699978;82;27517;-60
2022/04/07 01:00:18;;;;;;;13.43;6.35;;;;;;;7.66;55.09;100324.31;1738685;82;25718;-60
2022/04/07 01:02:44;;;;;;;13.03;6.72;;;;;;;7.64;55.04;100326.77;1735626;82;25794;-59
2022/04/07 01:05:11;;;;;;;13.78;6.37;;;;;;;7.61;55.11;100321.66;1735365;82;26097;-59
2022/04/07 01:07:39;;;;;;;20.40;6.05;;;;;;;7.57;55.24;100317.05;1735219;82;25723;-59
2022/04/07 01:10:09;;;;;;;13.75;6.03;;;;;;;7.53;55.44;100311.58;1735550;82;27615;-59
2022/04/07 01:12:37;;;;;;;16.25;6.53;;;;;;;7.51;55.45;100307.70;1735610;82;26076;-59
2022/04/07 01:15:07;;;;;;;16.02;6.83;;;;;;;7.49;55.57;100307.47;1735649;82;25492;-59
2022/04/07 01:17:35;;;;;;;17.90;6.55;;;;;;;7.43;55.60;100303.47;1708710;82;26053;-59
2022/04/07 01:20:06;;;;;;;18.75;7.25;;;;;;;7.41;55.89;100302.75;1708618;83;25713;-60
2022/04/07 01:22:39;;;;;;;16.80;6.50;;;;;;;7.43;56.17;100300.80;1712745;83;28548;-60
2022/04/07 01:25:08;;;;;;;17.65;6.42;;;;;;;7.43;56.18;100291.93;1712648;83;25838;-59
2022/04/07 01:27:35;;;;;;;14.73;6.62;;;;;;;7.42;56.51;100300.44;1712991;83;25470;-60
2022/04/07 01:30:11;;;;;;;16.77;6.10;;;;;;;7.44;56.84;100289.62;1712876;83;26162;-60
2022/04/07 01:32:46;;;;;;;16.77;6.28;;;;;;;7.46;57.00;100289.84;1712912;82;25701;-60
2022/04/07 01:35:14;;;;;;;11.35;5.60;;;;;;;7.51;57.16;100288.13;1712790;83;27632;-60
2022/04/07 01:37:45;;;;;;;13.80;5.67;;;;;;;7.54;57.18;100283.83;1712824;82;25903;-59
2022/04/07 01:40:16;;;;;;;23.95;6.42;;;;;;;7.58;57.20;100284.42;1712917;83;25688;-60
2022/04/07 01:42:46;;;;;;;17.32;5.58;;;;;;;7.60;57.36;100285.16;1705324;82;26046;-59
2022/04/07 01:45:14;;;;;;;13.85;5.65;;;;;;;7.61;57.28;100286.85;1730600;82;25768;-60
2022/04/07 01:47:44;;;;;;;14.47;5.78;;;;;;;7.62;57.43;100282.70;1729668;82;27450;-59
2022/04/07 01:50:12;;;;;;;15.15;5.03;;;;;;;7.64;57.20;100281.25;1729456;82;25458;-60
2022/04/07 01:52:41;;;;;;;13.78;5.95;;;;;;;7.64;57.43;100282.59;1692095;84;25752;-60
2022/04/07 01:55:09;;;;;;;19.50;7.67;;;;;;;7.62;57.08;100281.86;1689723;84;26250;-60
2022/04/07 01:57:36;;;;;;;17.45;6.50;;;;;;;7.62;57.19;100269.81;1689875;84;25811;-59
2022/04/07 02:00:07;;;;;;;12.40;5.75;;;;;;;7.60;56.71;100266.41;1681432;84;27488;-59
2022/04/07 02:02:40;;;;;;;17.95;6.50;;;;;;;7.57;56.71;100264.84;1729512;82;25450;-60
2022/04/07 02:05:10;;;;;;;23.83;7.47;;;;;;;7.51;56.56;100268.89;1729788;82;25478;-59
2022/04/07 02:07:41;;;;;;;26.33;7.37;;;;;;;7.47;56.42;100257.23;1730196;82;26390;-60
2022/04/07 02:10:13;;;;;;;19.95;5.95;;;;;;;7.42;56.35;100264.81;1729850;82;25803;-59
2022/04/07 02:12:42;;;;;;;17.07;6.15;;;;;;;7.33;56.32;100261.06;1729985;82;27417;-59
2022/04/07 02:15:11;;;;;;;12.85;5.65;;;;;;;7.28;56.36;100260.60;1729677;82;25821;-59
2022/04/07 02:17:38;;;;;;;12.43;6.33;;;;;;;7.22;56.29;100256.61;1729771;82;25681;-59
2022/04/07 02:20:09;;;;;;;18.40;6.53;;;;;;;7.14;56.77;100253.22;1729705;82;26771;-59
2022/04/07 02:22:36;;;;;;;19.05;6.87;;;;;;;7.07;56.86;100251.20;1729918;82;25829;-59
2022/04/07 02:25:05;;;;;;;22.30;6.10;;;;;;;7.03;56.84;100255.45;1729796;81;27859;-60
2022/04/07 02:27:40;;;;;;;13.35;6.58;;;;;;;6.98;56.77;100256.33;1729915;82;25485;-59
2022/04/07 02:30:11;;;;;;;13.55;7.10;;;;;;;6.95;56.80;100248.55;1729672;82;25744;-60
2022/04/07 02:32:38;;;;;;;16.45;7.72;;;;;;;6.92;56.70;100243.94;1729371;82;26842;-59
2022/04/07 02:35:10;;;;;;;18.67;7.60;;;;;;;6.86;56.90;100247.45;1729802;82;25712;-59
2022/04/07 02:37:37;;;;;;;18.62;7.08;;;;;;;6.82;56.99;100245.16;1729550;82;28320;-59
2022/04/07 02:40:06;;;;;;;16.35;6.80;;;;;;;6.77;57.02;100246.03;1729591;82;25720;-59
2022/04/07 02:42:33;;;;;;;15.53;7.17;;;;;;;6.76;56.91;100249.67;1728411;81;25665;-59
2022/04/07 02:45:00;;;;;;;42.98;8.50;;;;;;;6.74;57.04;100241.80;1709170;82;26165;-60
2022/04/07 02:47:34;;;;;;;25.97;8.18;;;;;;;6.74;56.91;100241.80;1695164;83;25692;-59
2022/04/07 02:50:01;;;;;;;14.80;7.42;;;;;;;6.72;57.02;100233.04;1680419;84;27670;-60
2022/04/07 02:52:28;;;;;;;20.90;7.65;;;;;;;6.70;57.00;100237.66;1689842;84;26220;-59
2022/04/07 02:54:54;;;;;;;24.60;7.60;;;;;;;6.69;57.02;100227.46;1690790;84;25781;-59
2022/04/07 02:57:23;;;;;;;25.17;8.30;;;;;;;6.70;56.98;100224.28;1698935;84;26687;-59
2022/04/07 02:59:52;;;;;;;18.90;8.03;;;;;;;6.70;56.80;100227.83;1664482;85;25492;-59
2022/04/07 03:02:19;;;;;;;24.23;9.20;;;;;;;6.68;57.09;100224.42;1714741;83;28099;-60
2022/04/07 03:04:45;;;;;;;27.02;8.33;;;;;;;6.68;56.99;100225.76;1692953;84;25690;-60
2022/04/07 03:07:12;;;;;;;15.38;7.45;;;;;;;6.68;57.05;100236.95;1700832;83;25793;-59
2022/04/07 03:09:40;;;;;;;18.48;7.90;;;;;;;6.70;57.00;100225.62;1700547;84;26299;-59
2022/04/07 03:12:09;;;;;;;16.17;6.78;;;;;;;6.70;57.08;100226.96;1700503;84;25785;-59
2022/04/07 03:14:36;;;;;;;22.85;8.13;;;;;;;6.68;57.40;100215.56;1700530;84;27502;-59
2022/04/07 03:17:03;;;;;;;29.48;10.13;;;;;;;6.67;57.29;100215.20;1700370;84;26466;-59
2022/04/07 03:19:31;;;;;;;23.00;8.70;;;;;;;6.68;57.40;100221.75;1700570;84;25739;-59
2022/04/07 03:21:59;;;;;;;21.05;8.83;;;;;;;6.70;57.50;100211.79;1700673;83;26129;-60
2022/04/07 03:24:26;;;;;;;24.57;8.20;;;;;;;6.76;57.51;100217.59;1700609;84;25733;-60
2022/04/07 03:26:53;;;;;;;18.23;8.33;;;;;;;6.76;57.36;100218.47;1700498;84;27468;-60
2022/04/07 03:29:21;;;;;;;26.68;9.80;;;;;;;6.78;57.24;100211.14;1697593;84;25899;-60
2022/04/07 03:31:49;;;;;;;23.38;8.98;;;;;;;6.78;57.16;100214.31;1700677;84;25842;-60
2022/04/07 03:34:16;;;;;;;21.85;8.28;;;;;;;6.78;57.05;100214.31;1700468;83;25820;-60
2022/04/07 03:36:43;;;;;;;21.68;9.90;;;;;;;6.76;56.90;100212.25;1700529;84;25803;-60
2022/04/07 03:39:10;;;;;;;24.47;9.48;;;;;;;6.74;57.06;100214.56;1700542;83;27509;-60
2022/04/07 03:41:36;;;;;;;35.17;8.68;;;;;;;6.72;57.09;100206.30;1700681;84;25980;-60
2022/04/07 03:44:07;;;;;;;28.80;10.10;;;;;;;6.74;56.98;100207.88;1690572;83;25752;-60
2022/04/07 03:46:34;;;;;;;23.73;9.83;;;;;;;6.73;56.97;100202.16;1693000;84;26119;-60
2022/04/07 03:49:01;;;;;;;20.17;9.35;;;;;;;6.74;56.85;100198.52;1729724;82;26063;-61
2022/04/07 03:51:28;;;;;;;22.20;9.80;;;;;;;6.76;56.81;100198.41;1704419;84;27483;-61
2022/04/07 03:53:54;;;;;;;21.17;9.15;;;;;;;6.80;56.77;100193.66;1704273;83;25538;-60
2022/04/07 03:56:21;;;;;;;19.67;8.73;;;;;;;6.82;56.50;100193.89;1704639;84;25777;-61
2022/04/07 03:58:48;;;;;;;22.65;8.35;;;;;;;6.88;56.57;100192.54;1704090;84;26255;-60
2022/04/07 04:01:15;;;;;;;21.73;9.15;;;;;;;6.91;56.61;100192.77;1730100;82;25767;-60
2022/04/07 04:03:42;;;;;;;37.13;9.70;;;;;;;6.95;56.58;100189.71;1729450;82;27698;-60
2022/04/07 04:06:09;;;;;;;26.35;9.30;;;;;;;7.02;56.58;100191.40;1697264;84;25754;-60
2022/04/07 04:08:36;;;;;;;244.62;19.70;;;;;;;7.05;56.51;100186.64;1697384;84;25747;-60
2022/04/07 04:11:03;;;;;;;43.28;9.70;;;;;;;7.10;56.46;100187.59;1673337;85;26428;-60
2022/04/07 04:13:31;;;;;;;72.32;40.10;;;;;;;7.16;56.33;100187.07;1736960;82;25811;-59
2022/04/07 04:15:58;;;;;;;38.45;9.60;;;;;;;7.20;56.16;100191.67;1729912;82;27608;-60
2022/04/07 04:18:26;;;;;;;27.70;9.83;;;;;;;7.22;56.04;100191.56;1704279;83;25704;-60
2022/04/07 04:20:53;;;;;;;22.22;9.43;;;;;;;7.25;55.95;100195.30;1704328;84;25729;-60
2022/04/07 04:23:20;;;;;;;29.80;9.90;;;;;;;7.28;55.91;100187.86;1704315;84;26130;-60
2022/04/07 04:25:47;;;;;;;31.05;10.43;;;;;;;7.31;56.02;100179.59;1734422;82;25775;-59
2022/04/07 04:28:14;;;;;;;26.82;11.12;;;;;;;7.37;56.01;100184.91;1726654;83;27499;-60
2022/04/07 04:30:41;;;;;;;31.25;8.90;;;;;;;7.44;56.04;100183.91;1726973;83;25746;-60
2022/04/07 04:33:08;;;;;;;33.15;8.90;;;;;;;7.52;55.82;100188.95;1726860;83;26297;-60
2022/04/07 04:35:36;;;;;;;42.33;13.45;;;;;;;7.56;55.56;100189.53;1689691;84;27097;-60
2022/04/07 04:38:03;;;;;;;37.25;13.72;;;;;;;7.61;55.69;100190.02;1696007;84;25863;-60
2022/04/07 04:40:30;;;;;;;35.08;12.25;;;;;;;7.68;55.54;100187.63;1720208;83;27519;-60
2022/04/07 04:42:56;;;;;;;23.32;8.98;;;;;;;7.73;55.45;100185.90;1720201;82;26091;-60
2022/04/07 04:45:23;;;;;;;49.60;11.33;;;;;;;7.80;55.37;100191.08;1720409;82;25740;-60
2022/04/07 04:47:52;;;;;;;24.55;8.83;;;;;;;7.84;55.25;100184.48;1730030;82;27037;-60
2022/04/07 04:50:20;;;;;;;15.40;7.65;;;;;;;7.89;55.06;100197.48;1729655;82;25776;-60
2022/04/07 04:52:47;;;;;;;24.02;8.53;;;;;;;7.91;54.93;100191.00;1692416;84;27458;-60
2022/04/07 04:55:14;;;;;;;24.50;8.60;;;;;;;7.96;54.74;100189.27;1691900;84;25996;-60
2022/04/07 04:57:41;;;;;;;25.52;9.43;;;;;;;8.01;54.67;100187.05;1690827;84;25647;-59
2022/04/07 05:00:11;;;;;;;24.95;8.05;;;;;;;8.06;54.63;100178.11;1684735;84;26189;-60
2022/04/07 05:02:39;;;;;;;20.68;9.43;;;;;;;8.09;54.48;100173.83;1663823;86;25962;-60
2022/04/07 05:05:08;;;;;;;17.77;7.95;;;;;;;8.15;55.06;100179.14;1663603;86;29635;-60
2022/04/07 05:07:35;;;;;;;27.98;9.90;;;;;;;8.19;55.05;100167.66;1659031;86;25553;-60
2022/04/07 05:10:05;;;;;;;24.65;9.08;;;;;;;8.21;54.74;100171.89;1659027;86;26341;-60
2022/04/07 05:12:32;;;;;;;32.42;9.10;;;;;;;8.32;54.44;100174.12;1658676;86;26728;-60
2022/04/07 05:14:59;;;;;;;33.28;11.65;;;;;;;8.38;54.19;100171.72;1658933;86;25500;-60
2022/04/07 05:17:25;;;;;;;32.88;12.47;;;;;;;8.46;54.08;100165.69;1658622;86;28433;-60
2022/04/07 05:19:52;;;;;;;41.05;12.37;;;;;;;8.52;54.26;100158.45;1658901;86;25745;-60
2022/04/07 05:22:19;;;;;;;22.15;10.08;;;;;;;8.62;54.14;100154.47;1658515;86;25793;-60
2022/04/07 05:24:46;;;;;;;36.23;8.70;;;;;;;8.69;53.80;100140.85;1658909;86;26074;-60
2022/04/07 05:27:13;;;;;;;25.02;9.18;;;;;;;8.77;53.59;100136.14;1658739;86;25750;-60
2022/04/07 05:29:39;;;;;;;19.73;8.40;;;;;;;8.84;53.54;100133.72;1658571;86;27457;-60
2022/04/07 05:32:08;;;;;;;30.40;13.13;;;;;;;8.90;53.34;100129.16;1658578;86;26063;-60
2022/04/07 05:34:34;;;;;;;30.00;8.35;;;;;;;8.98;53.29;100121.24;1658635;86;25902;-60
2022/04/07 05:37:03;;;;;;;26.70;8.98;;;;;;;9.10;52.57;100123.28;1658750;86;27086;-60
2022/04/07 05:39:30;;;;;;;17.95;7.35;;;;;;;9.23;52.01;100117.61;1658859;86;25856;-60
2022/04/07 05:41:57;;;;;;;14.23;7.72;;;;;;;9.32;51.67;100122.63;1658931;86;27527;-60
2022/04/07 05:44:24;;;;;;;29.30;7.72;;;;;;;9.43;51.05;100122.44;1642608;86;25810;-60
2022/04/07 05:46:51;;;;;;;16.73;7.80;;;;;;;9.53;51.01;100120.58;1661959;86;25820;-60
2022/04/07 05:49:19;;;;;;;15.23;8.05;;;;;;;9.68;50.61;100123.66;1691311;83;26879;-60
2022/04/07 05:51:50;;;;;;;29.87;7.97;;;;;;;9.80;49.98;100121.63;1683357;85;25828;-60
2022/04/07 05:54:17;;;;;;;19.62;7.15;;;;;;;9.90;50.03;100124.30;1686043;85;27446;-60
2022/04/07 05:56:43;;;;;;;20.82;6.92;;;;;;;10.01;49.79;100119.22;1686707;84;25741;-60
2022/04/07 05:59:10;;;;;;;20.30;6.85;;;;;;;10.13;49.42;100117.17;1690491;84;25536;-60
2022/04/07 06:01:36;;;;;;;21.48;6.33;;;;;;;10.26;49.14;100121.72;1676080;85;26060;-60
2022/04/07 06:04:04;;;;;;;13.18;6.85;;;;;;;10.38;48.30;100118.34;1691989;84;25557;-60
2022/04/07 06:06:30;;;;;;;19.25;6.55;;;;;;;10.50;48.11;100114.94;1692089;84;27599;-60
2022/04/07 06:08:57;;;;;;;18.12;7.05;;;;;;;10.59;48.04;100106.44;1691819;83;26076;-60
2022/04/07 06:11:24;;;;;;;12.88;6.37;;;;;;;10.69;47.49;100103.70;1691938;84;25828;-60
2022/04/07 06:13:50;;;;;;;14.05;7.08;;;;;;;10.81;47.60;100103.80;1692059;83;26114;-60
2022/04/07 06:16:17;;;;;;;14.85;6.55;;;;;;;10.91;46.71;100105.91;1691756;83;27280;-60
2022/04/07 06:18:44;;;;;;;11.40;5.87;;;;;;;11.00;46.52;100105.97;1691759;84;27462;-60
2022/04/07 06:21:11;;;;;;;20.55;6.92;;;;;;;11.07;46.53;100094.95;1691604;84;25543;-60
2022/04/07 06:23:39;;;;;;;19.35;7.25;;;;;;;11.15;46.74;100100.41;1691637;84;25811;-61
2022/04/07 06:26:07;;;;;;;21.75;7.12;;;;;;;11.20;46.77;100085.95;1691908;84;25979;-60
2022/04/07 06:28:33;;;;;;;22.80;5.92;;;;;;;11.24;46.33;100086.00;1691899;83;25862;-60
2022/04/07 06:31:00;;;;;;;18.02;6.30;;;;;;;11.27;46.22;100084.31;1691890;84;27438;-61
2022/04/07 06:33:27;;;;;;;16.87;6.65;;;;;;;11.31;45.92;100085.36;1691756;84;25810;-60
2022/04/07 06:35:54;;;;;;;18.40;5.67;;;;;;;11.37;45.28;100083.37;1691866;84;25532;-60
2022/04/07 06:38:21;;;;;;;7.35;4.80;;;;;;;11.44;45.14;100070.95;1686027;84;26076;-60
2022/04/07 06:40:48;;;;;;;12.20;5.65;;;;;;;11.53;44.75;100066.47;1674810;85;25751;-60
2022/04/07 06:43:15;;;;;;;22.75;5.62;;;;;;;11.60;44.50;100056.73;1690431;83;27399;-60
2022/04/07 06:45:42;;;;;;;15.65;5.83;;;;;;;11.69;43.78;100063.03;1697018;82;25990;-60
2022/04/07 06:48:09;;;;;;;32.67;5.90;;;;;;;11.74;43.60;100065.55;1728523;82;25609;-60
2022/04/07 06:50:36;;;;;;;32.23;6.00;;;;;;;11.85;43.14;100060.41;1702811;82;26262;-60
2022/04/07 06:53:03;;;;;;;16.77;5.20;;;;;;;11.96;42.76;100061.95;1727464;82;26377;-60
2022/04/07 06:55:30;;;;;;;15.00;5.45;;;;;;;12.07;42.81;100056.79;1728102;83;27533;-60
2022/04/07 06:58:00;;;;;;;20.55;5.20;;;;;;;12.20;42.88;100055.83;1732071;82;25951;-60
2022/04/07 07:00:30;;;;;;;23.85;5.47;;;;;;;12.34;42.24;100047.61;1742862;82;25557;-60
2022/04/07 07:03:00;;;;;;;20.15;4.58;;;;;;;12.48;41.93;100054.20;1742361;80;26093;-60
2022/04/07 07:05:30;;;;;;;15.32;4.53;;;;;;;12.61;41.57;100042.06;1742297;81;25502;-60
2022/04/07 07:08:12;;;;;;;21.00;4.65;;;;;;;12.73;41.34;100044.78;1742668;81;27473;-60
2022/04/07 07:10:39;;;;;;;14.63;5.30;;;;;;;12.82;41.06;100042.42;1742509;81;25805;-61
2022/04/07 07:13:06;;;;;;;14.25;4.37;;;;;;;12.93;40.75;100037.17;1742565;82;25761;-61
2022/04/07 07:15:33;;;;;;;12.73;5.15;;;;;;;13.02;40.38;100043.42;1742519;81;26403;-61
2022/04/07 07:17:59;;;;;;;17.02;4.25;;;;;;;13.10;40.37;100038.02;1742666;82;25657;-61
2022/04/07 07:20:27;;;;;;;23.35;4.62;;;;;;;13.17;40.23;100034.13;1742498;82;27492;-61
2022/04/07 07:22:54;;;;;;;11.55;4.75;;;;;;;13.26;40.35;100030.41;1742359;82;25477;-61
2022/04/07 07:25:20;;;;;;;13.80;4.42;;;;;;;13.41;40.36;100025.66;1742419;82;25823;-61
2022/04/07 07:27:48;;;;;;;12.10;4.03;;;;;;;13.56;39.70;100025.79;1742514;81;26112;-61
2022/04/07 07:30:17;;;;;;;22.32;4.78;;;;;;;13.71;39.88;100019.16;1742455;82;25815;-59
2022/04/07 07:32:48;;;;;;;21.90;4.17;;;;;;;13.87;39.99;100020.42;1742347;82;27462;-61
2022/04/07 07:35:20;;;;;;;17.95;4.50;;;;;;;14.04;39.18;100025.22;1742540;82;25778;-61
2022/04/07 07:37:50;;;;;;;13.38;3.72;;;;;;;14.17;38.70;100021.94;1742505;81;25680;-61
2022/04/07 07:40:19;;;;;;;7.30;3.80;;;;;;;14.31;38.71;100016.80;1742320;81;26125;-61
2022/04/07 07:42:47;;;;;;;23.10;5.10;;;;;;;14.47;37.92;100020.73;1742592;82;25845;-61
2022/04/07 07:45:16;;;;;;;9.98;4.05;;;;;;;14.66;37.97;100026.20;1725128;82;27442;-61
2022/04/07 07:47:43;;;;;;;21.82;3.85;;;;;;;14.86;37.70;100017.58;1715001;83;26505;-62
2022/04/07 07:50:11;;;;;;;11.12;3.52;;;;;;;15.09;37.37;100024.83;1699970;83;25693;-62
2022/04/07 07:52:38;;;;;;;15.18;4.45;;;;;;;15.28;37.28;100032.44;1696153;83;28257;-61
2022/04/07 07:55:07;;;;;;;11.63;3.83;;;;;;;15.44;36.83;100037.34;1696252;84;25741;-61
2022/04/07 07:57:34;;;;;;;16.87;4.60;;;;;;;15.58;37.26;100028.89;1696182;84;27511;-61
2022/04/07 08:00:02;;;;;;;9.80;4.37;;;;;;;15.73;36.42;100027.00;1718974;82;25832;-61
2022/04/07 08:02:33;;;;;;;11.28;4.42;;;;;;;15.85;35.87;100030.63;1686039;84;25725;-61
2022/04/07 08:04:59;;;;;;;6.83;4.85;;;;;;;15.93;35.34;100022.38;1716448;83;26201;-62
2022/04/07 08:07:26;;;;;;;13.98;5.45;;;;;;;16.03;35.57;100026.14;1685979;84;25763;-61
2022/04/07 08:09:56;;;;;;;10.55;4.10;;;;;;;16.17;35.64;100024.42;1716562;83;26877;-61
2022/04/07 08:12:25;;;;;;;19.23;4.20;;;;;;;16.30;35.39;100009.66;1686032;84;25890;-61
2022/04/07 08:14:54;;;;;;;15.60;4.53;;;;;;;16.52;35.30;100010.51;1716147;83;25487;-61
2022/04/07 08:17:21;;;;;;;11.50;3.80;;;;;;;16.76;35.22;100012.48;1685893;84;26087;-61
2022/04/07 08:19:48;;;;;;;13.53;4.30;;;;;;;16.98;35.01;100000.28;1716067;82;26644;-61
2022/04/07 08:22:16;;;;;;;16.48;4.80;;;;;;;17.18;33.29;99995.80;1685898;85;27497;-62
2022/04/07 08:24:43;;;;;;;9.35;4.40;;;;;;;17.24;33.52;99997.42;1716115;82;25806;-62
2022/04/07 08:27:12;;;;;;;20.50;4.65;;;;;;;17.35;33.16;99994.13;1679878;84;25803;-62
2022/04/07 08:29:39;;;;;;;8.25;4.55;;;;;;;17.36;32.88;100007.54;1703192;83;26209;-62
2022/04/07 08:32:08;;;;;;;10.15;3.65;;;;;;;17.34;32.88;99997.38;1688474;83;25858;-62
2022/04/07 08:34:35;;;;;;;14.58;4.03;;;;;;;17.30;32.39;100000.69;1705147;83;26755;-61
2022/04/07 08:37:04;;;;;;;11.15;4.62;;;;;;;17.29;32.79;99998.51;1707885;84;25826;-61
2022/04/07 08:39:31;;;;;;;12.50;5.08;;;;;;;17.37;32.85;100012.44;1712678;82;25736;-61
2022/04/07 08:41:59;;;;;;;20.17;4.45;;;;;;;17.44;32.59;99995.64;1718864;83;26429;-61
2022/04/07 08:44:31;;;;;;;14.20;4.65;;;;;;;17.46;32.93;99985.41;1715794;83;26175;-61
2022/04/07 08:46:56;;;;;;;31.95;5.60;;;;;;;17.62;32.72;99982.03;1702005;83;27496;-61
2022/04/07 08:49:25;;;;;;;16.67;4.97;;;;;;;17.89;32.80;99986.22;1718106;82;25727;-61
2022/04/07 08:51:53;;;;;;;19.07;5.37;;;;;;;18.19;32.17;99982.71;1718656;83;25800;-61
2022/04/07 08:54:21;;;;;;;14.98;4.62;;;;;;;18.38;32.12;99974.25;1718700;83;26105;-62
2022/04/07 08:56:49;;;;;;;12.82;5.30;;;;;;;18.52;31.51;99973.75;1718517;82;25708;-61
2022/04/07 08:59:16;;;;;;;17.17;4.67;;;;;;;18.53;31.39;99967.77;1711273;82;27408;-61
2022/04/07 09:01:44;;;;;;;9.50;5.15;;;;;;;18.54;31.60;99970.80;1709482;83;25755;-61
2022/04/07 09:04:13;;;;;;;14.98;4.80;;;;;;;18.59;31.86;99951.43;1717050;82;25808;-62
2022/04/07 09:06:41;;;;;;;16.20;5.17;;;;;;;18.70;31.80;99954.04;1718765;83;26829;-62
2022/04/07 09:09:19;;;;;;;20.35;4.72;;;;;;;18.79;31.44;99954.68;1718570;83;25813;-63
2022/04/07 09:11:46;;;;;;;27.75;5.35;;;;;;;18.87;31.03;99950.91;1718607;83;27550;-63
2022/04/07 09:14:14;;;;;;;10.10;4.62;;;;;;;18.90;30.89;99932.76;1718450;83;27290;-63
2022/04/07 09:16:41;;;;;;;17.17;4.92;;;;;;;18.93;30.73;99933.20;1689752;83;25735;-63
2022/04/07 09:19:09;;;;;;;25.45;4.67;;;;;;;18.94;30.64;99923.16;1720131;82;26111;-63
2022/04/07 09:21:37;;;;;;;29.10;5.35;;;;;;;19.03;30.93;99915.58;1720096;82;25714;-63
2022/04/07 09:24:07;;;;;;;20.12;4.75;;;;;;;19.19;30.03;99912.92;1720145;82;27304;-63
2022/04/07 09:26:43;;;;;;;19.57;4.75;;;;;;;19.12;30.63;99903.93;1719784;82;25919;-63
2022/04/07 09:29:11;;;;;;;25.70;4.80;;;;;;;19.05;30.57;99898.48;1668021;85;25734;-65
2022/04/07 09:31:42;;;;;;;13.08;4.50;;;;;;;18.94;30.36;99893.18;1683823;83;27062;-63
2022/04/07 09:34:12;;;;;;;17.70;5.12;;;;;;;18.81;30.63;99896.73;1666985;85;25811;-64
2022/04/07 09:36:39;;;;;;;13.80;4.75;;;;;;;18.79;30.73;99887.93;1667952;86;27544;-64
2022/04/07 09:39:06;;;;;;;18.52;4.53;;;;;;;18.93;30.57;99884.15;1691290;84;25474;-63
2022/04/07 09:41:34;;;;;;;12.80;4.15;;;;;;;19.52;30.21;99885.53;1701604;83;25483;-63
2022/04/07 09:44:02;;;;;;;17.98;4.35;;;;;;;20.40;29.20;99865.86;1705459;82;26092;-63
2022/04/07 09:46:38;;;;;;;13.78;4.60;;;;;;;21.40;28.31;99859.38;1712371;83;25487;-63
2022/04/07 09:49:09;;;;;;;9.48;4.15;;;;;;;22.32;26.78;99848.36;1729955;82;27606;-63
2022/04/07 09:51:50;;;;;;;11.40;4.40;;;;;;;23.19;25.92;99840.47;1719958;83;25819;-63
2022/04/07 09:54:18;;;;;;;12.68;3.80;;;;;;;23.96;24.34;99839.75;1719869;83;25813;-64
2022/04/07 09:56:49;;;;;;;10.28;3.67;;;;;;;24.63;22.95;99835.34;1720301;83;26211;-64
2022/04/07 09:59:19;;;;;;;14.65;4.15;;;;;;;25.13;21.88;99816.50;1718563;82;25771;-65
2022/04/07 10:01:50;;;;;;;15.95;3.50;;;;;;;25.68;22.35;99821.27;1716859;83;27597;-62
2022/04/07 10:04:16;;;;;;;18.15;3.92;;;;;;;26.19;21.19;99813.48;1718498;83;25652;-63
2022/04/07 10:06:45;;;;;;;19.20;4.80;;;;;;;26.66;21.22;99806.34;1718440;83;25743;-64
2022/04/07 10:09:11;;;;;;;14.43;3.77;;;;;;;27.03;18.27;99817.02;1719148;83;26253;-64
2022/04/07 10:11:40;;;;;;;11.60;4.20;;;;;;;26.88;19.47;99802.63;1718607;83;25997;-64
2022/04/07 10:14:09;;;;;;;16.15;4.72;;;;;;;27.02;19.40;99798.83;1718294;83;27464;-64
2022/04/07 10:16:35;;;;;;;18.92;3.80;;;;;;;26.91;19.09;99793.80;1718681;83;25795;-64
2022/04/07 10:19:22;;;;;;;17.07;4.90;;;;;;;26.70;19.52;99785.41;1718480;83;25667;-64
2022/04/07 10:22:19;;;;;;;10.82;4.15;;;;;;;26.61;18.86;99775.13;1718222;83;27346;-64
2022/04/07 10:24:50;;;;;;;16.42;4.03;;;;;;;26.32;19.41;99767.23;1719606;83;25694;-64
2022/04/07 10:27:21;;;;;;;9.53;3.60;;;;;;;25.89;20.06;99765.25;1720224;83;28237;-64
2022/04/07 10:30:12;;;;;;;36.53;4.45;;;;;;;25.60;20.45;99767.48;1719657;82;25842;-64
2022/04/07 10:32:46;;;;;;;18.92;3.05;;;;;;;25.52;20.22;99752.25;1720043;82;25711;-64
2022/04/07 10:35:35;;;;;;;15.98;4.40;;;;;;;25.22;19.73;99761.84;1701692;83;25960;-64
2022/04/07 10:38:09;;;;;;;12.28;3.02;;;;;;;24.69;20.36;99751.84;1718941;83;25548;-64
2022/04/07 10:40:44;;;;;;;8.38;3.15;;;;;;;24.34;21.03;99746.12;1720018;83;27473;-64
2022/04/07 10:43:20;;;;;;;22.87;4.03;;;;;;;24.29;21.19;99746.88;1702210;83;29640;-64
2022/04/07 10:46:08;;;;;;;11.08;3.42;;;;;;;23.89;21.61;99733.61;1715318;83;26309;-64
2022/04/07 10:49:00;;;;;;;19.92;3.27;;;;;;;23.47;22.01;99731.27;1718386;83;26926;-63
2022/04/07 10:51:43;;;;;;;12.10;2.40;;;;;;;23.16;22.73;99725.72;1686940;84;25735;-64
2022/04/07 10:54:11;;;;;;;9.78;2.95;;;;;;;23.08;22.47;99723.67;1690265;84;28534;-65
2022/04/07 10:56:41;;;;;;;13.40;3.08;;;;;;;23.04;22.41;99722.48;1696702;83;26553;-64
2022/04/07 10:59:34;;;;;;;13.25;3.25;;;;;;;22.93;22.30;99721.98;1698183;82;25739;-64
2022/04/07 11:02:11;;;;;;;11.08;3.52;;;;;;;22.77;22.44;99716.20;1717296;82;26073;-64
2022/04/07 11:05:08;;;;;;;15.18;3.60;;;;;;;22.58;22.33;99713.33;1719705;82;25825;-64
2022/04/07 11:07:40;;;;;;;10.30;2.60;;;;;;;22.36;22.00;99702.98;1719187;82;27494;-64
2022/04/07 11:10:13;;;;;;;13.08;2.90;;;;;;;22.11;22.15;99705.97;1718845;82;25831;-63
2022/04/07 11:13:02;;;;;;;8.25;3.77;;;;;;;21.84;22.37;99701.79;1719541;82;25810;-64
2022/04/07 11:15:51;;;;;;;24.07;8.60;;;;;;;21.65;22.65;99703.80;1717700;83;26157;-64
2022/04/07 11:18:35;;;;;;;34.65;8.30;;;;;;;21.52;23.06;99698.50;1719976;83;25953;-63
2022/04/07 11:21:11;;;;;;;22.93;5.67;;;;;;;21.45;22.95;99686.83;1717168;83;27465;-62
2022/04/07 11:23:54;;;;;;;10.30;4.58;;;;;;;21.35;22.75;99688.23;1718445;83;25737;-62
2022/04/07 11:26:27;;;;;;;8.65;4.33;;;;;;;21.04;22.71;99679.77;1718003;83;25794;-63
2022/04/07 11:29:07;;;;;;;16.50;5.03;;;;;;;20.78;22.93;99677.19;1718646;82;26242;-63
2022/04/07 11:31:48;;;;;;;18.05;4.45;;;;;;;20.56;23.35;99671.85;1718435;83;25474;-63
2022/04/07 11:34:51;;;;;;;15.00;4.85;;;;;;;20.44;23.21;99669.06;1717643;83;27570;-63